sensor_id;sensor_type;location;lat;lon;timestamp;pressure;altitude;pressure_sealevel;temperature;humidity
62057;BME280;48016;50.284;18.860;2023-04-09T00:02:13;98774.73;;;5.05;83.43
62057;BME280;48016;50.284;18.860;2023-04-09T00:04:40;98771.71;;;5.03;83.12
62057;BME280;48016;50.284;18.860;2023-04-09T00:07:07;98774.77;;;4.98;83.25
62057;BME280;48016;50.284;18.860;2023-04-09T00:09:34;98772.66;;;4.95;83.49
62057;BME280;48016;50.284;18.860;2023-04-09T00:12:01;98773.17;;;4.94;83.59
62057;BME280;48016;50.284;18.860;2023-04-09T00:14:28;98773.88;;;4.93;83.38
62057;BME280;48016;50.284;18.860;2023-04-09T00:16:55;98772.55;;;4.90;83.39
62057;BME280;48016;50.284;18.860;2023-04-09T00:19:21;98776.51;;;4.91;83.62
62057;BME280;48016;50.284;18.860;2023-04-09T00:21:48;98781.30;;;4.91;83.59
62057;BME280;48016;50.284;18.860;2023-04-09T00:24:15;98780.38;;;4.91;83.74
62057;BME280;48016;50.284;18.860;2023-04-09T00:26:41;98783.85;;;4.92;83.61
62057;BME280;48016;50.284;18.860;2023-04-09T00:29:08;98784.47;;;4.94;83.75
62057;BME280;48016;50.284;18.860;2023-04-09T00:31:35;98783.92;;;4.97;83.83
62057;BME280;48016;50.284;18.860;2023-04-09T00:34:01;98780.21;;;4.99;83.96
62057;BME280;48016;50.284;18.860;2023-04-09T00:36:28;98783.19;;;5.03;83.89
62057;BME280;48016;50.284;18.860;2023-04-09T00:38:54;98780.17;;;5.06;83.89
62057;BME280;48016;50.284;18.860;2023-04-09T00:41:22;98782.89;;;5.09;84.01
62057;BME280;48016;50.284;18.860;2023-04-09T00:43:48;98782.67;;;5.11;83.98
62057;BME280;48016;50.284;18.860;2023-04-09T00:46:16;98784.54;;;5.14;84.04
62057;BME280;48016;50.284;18.860;2023-04-09T00:48:43;98783.91;;;5.15;84.12
62057;BME280;48016;50.284;18.860;2023-04-09T00:51:09;98784.56;;;5.17;84.17
62057;BME280;48016;50.284;18.860;2023-04-09T00:53:36;98788.17;;;5.18;84.23
62057;BME280;48016;50.284;18.860;2023-04-09T00:56:03;98789.11;;;5.18;84.17
62057;BME280;48016;50.284;18.860;2023-04-09T00:58:31;98793.97;;;5.19;84.31
62057;BME280;48016;50.284;18.860;2023-04-09T01:00:58;98794.77;;;5.21;84.51
62057;BME280;48016;50.284;18.860;2023-04-09T01:03:24;98796.95;;;5.21;84.25
62057;BME280;48016;50.284;18.860;2023-04-09T01:08:50;98797.55;;;5.19;84.28
62057;BME280;48016;50.284;18.860;2023-04-09T01:16:34;98803.45;;;5.20;84.44
62057;BME280;48016;50.284;18.860;2023-04-09T01:19:09;98802.96;;;5.19;84.43
62057;BME280;48016;50.284;18.860;2023-04-09T01:21:41;98798.89;;;5.16;84.19
62057;BME280;48016;50.284;18.860;2023-04-09T01:24:20;98797.32;;;5.13;84.11
62057;BME280;48016;50.284;18.860;2023-04-09T01:27:02;98794.23;;;5.09;84.06
62057;BME280;48016;50.284;18.860;2023-04-09T01:29:32;98794.64;;;5.06;84.01
62057;BME280;48016;50.284;18.860;2023-04-09T01:32:01;98791.84;;;5.05;83.89
62057;BME280;48016;50.284;18.860;2023-04-09T01:34:29;98793.77;;;5.03;83.86
62057;BME280;48016;50.284;18.860;2023-04-09T01:36:57;98795.72;;;5.02;83.91
62057;BME280;48016;50.284;18.860;2023-04-09T01:39:25;98793.13;;;5.00;83.93
62057;BME280;48016;50.284;18.860;2023-04-09T01:41:52;98792.95;;;4.97;83.85
62057;BME280;48016;50.284;18.860;2023-04-09T01:44:20;98793.17;;;4.92;83.86
62057;BME280;48016;50.284;18.860;2023-04-09T01:46:49;98795.31;;;4.90;84.03
62057;BME280;48016;50.284;18.860;2023-04-09T01:49:17;98801.83;;;4.92;84.23
62057;BME280;48016;50.284;18.860;2023-04-09T01:51:44;98801.70;;;4.95;84.10
62057;BME280;48016;50.284;18.860;2023-04-09T01:54:12;98799.92;;;4.96;84.13
62057;BME280;48016;50.284;18.860;2023-04-09T01:56:45;98801.45;;;4.97;84.29
62057;BME280;48016;50.284;18.860;2023-04-09T01:59:12;98799.27;;;4.97;84.46
62057;BME280;48016;50.284;18.860;2023-04-09T02:01:48;98800.46;;;4.96;84.41
62057;BME280;48016;50.284;18.860;2023-04-09T02:04:36;98798.27;;;4.96;84.43
62057;BME280;48016;50.284;18.860;2023-04-09T02:07:41;98797.09;;;4.96;84.48
62057;BME280;48016;50.284;18.860;2023-04-09T02:10:10;98793.25;;;4.96;84.54
62057;BME280;48016;50.284;18.860;2023-04-09T02:12:42;98794.27;;;4.97;84.39
62057;BME280;48016;50.284;18.860;2023-04-09T02:15:11;98794.52;;;4.95;84.32
62057;BME280;48016;50.284;18.860;2023-04-09T02:17:38;98793.50;;;4.95;84.41
62057;BME280;48016;50.284;18.860;2023-04-09T02:20:05;98795.80;;;4.96;84.55
62057;BME280;48016;50.284;18.860;2023-04-09T02:22:32;98799.05;;;4.97;84.45
62057;BME280;48016;50.284;18.860;2023-04-09T02:24:58;98802.02;;;4.97;84.41
62057;BME280;48016;50.284;18.860;2023-04-09T02:27:25;98796.38;;;4.98;84.47
62057;BME280;48016;50.284;18.860;2023-04-09T02:29:52;98795.69;;;5.00;84.27
62057;BME280;48016;50.284;18.860;2023-04-09T02:32:18;98795.44;;;5.00;84.31
62057;BME280;48016;50.284;18.860;2023-04-09T02:34:45;98798.70;;;5.02;84.40
62057;BME280;48016;50.284;18.860;2023-04-09T02:37:11;98795.65;;;5.02;84.28
62057;BME280;48016;50.284;18.860;2023-04-09T02:39:38;98795.77;;;5.00;84.39
62057;BME280;48016;50.284;18.860;2023-04-09T02:42:04;98797.61;;;5.00;84.37
62057;BME280;48016;50.284;18.860;2023-04-09T02:44:33;98799.80;;;5.03;84.43
62057;BME280;48016;50.284;18.860;2023-04-09T02:46:59;98795.17;;;5.04;84.16
62057;BME280;48016;50.284;18.860;2023-04-09T02:49:26;98794.48;;;5.05;84.15
62057;BME280;48016;50.284;18.860;2023-04-09T02:51:53;98798.31;;;5.03;84.13
62057;BME280;48016;50.284;18.860;2023-04-09T02:54:19;98795.45;;;5.00;84.06
62057;BME280;48016;50.284;18.860;2023-04-09T02:56:46;98796.59;;;4.98;84.05
62057;BME280;48016;50.284;18.860;2023-04-09T02:59:13;98797.29;;;4.97;84.04
62057;BME280;48016;50.284;18.860;2023-04-09T03:01:39;98793.86;;;4.96;84.13
62057;BME280;48016;50.284;18.860;2023-04-09T03:04:06;98797.73;;;4.95;84.17
62057;BME280;48016;50.284;18.860;2023-04-09T03:06:32;98799.06;;;4.94;84.18
62057;BME280;48016;50.284;18.860;2023-04-09T03:08:59;98797.30;;;4.96;84.26
62057;BME280;48016;50.284;18.860;2023-04-09T03:11:26;98798.16;;;4.96;84.15
62057;BME280;48016;50.284;18.860;2023-04-09T03:13:52;98793.66;;;4.95;83.94
62057;BME280;48016;50.284;18.860;2023-04-09T03:16:19;98792.09;;;4.93;83.96
62057;BME280;48016;50.284;18.860;2023-04-09T03:18:46;98790.49;;;4.92;83.86
62057;BME280;48016;50.284;18.860;2023-04-09T03:21:12;98791.02;;;4.89;83.99
62057;BME280;48016;50.284;18.860;2023-04-09T03:23:39;98795.02;;;4.89;84.09
62057;BME280;48016;50.284;18.860;2023-04-09T03:26:06;98796.35;;;4.89;84.16
62057;BME280;48016;50.284;18.860;2023-04-09T03:28:32;98794.20;;;4.91;83.98
62057;BME280;48016;50.284;18.860;2023-04-09T03:30:59;98797.90;;;4.91;83.97
62057;BME280;48016;50.284;18.860;2023-04-09T03:33:26;98797.91;;;4.91;83.84
62057;BME280;48016;50.284;18.860;2023-04-09T03:35:52;98800.39;;;4.90;83.97
62057;BME280;48016;50.284;18.860;2023-04-09T03:38:19;98798.32;;;4.90;84.09
62057;BME280;48016;50.284;18.860;2023-04-09T03:40:46;98795.98;;;4.92;84.05
62057;BME280;48016;50.284;18.860;2023-04-09T03:43:13;98793.62;;;4.94;83.90
62057;BME280;48016;50.284;18.860;2023-04-09T03:45:39;98794.40;;;4.93;83.91
62057;BME280;48016;50.284;18.860;2023-04-09T03:48:06;98791.77;;;4.94;83.99
62057;BME280;48016;50.284;18.860;2023-04-09T03:50:39;98790.36;;;4.95;83.97
62057;BME280;48016;50.284;18.860;2023-04-09T03:53:06;98792.87;;;4.96;84.04
62057;BME280;48016;50.284;18.860;2023-04-09T03:55:33;98791.06;;;4.97;83.98
62057;BME280;48016;50.284;18.860;2023-04-09T03:57:59;98790.80;;;4.97;83.93
62057;BME280;48016;50.284;18.860;2023-04-09T04:00:26;98789.24;;;4.97;84.00
62057;BME280;48016;50.284;18.860;2023-04-09T04:02:53;98791.96;;;4.95;84.07
62057;BME280;48016;50.284;18.860;2023-04-09T04:05:22;98788.84;;;4.93;84.17
62057;BME280;48016;50.284;18.860;2023-04-09T04:07:49;98787.64;;;4.93;84.29
62057;BME280;48016;50.284;18.860;2023-04-09T04:10:16;98787.20;;;4.95;84.39
62057;BME280;48016;50.284;18.860;2023-04-09T04:12:42;98792.85;;;4.95;84.20
62057;BME280;48016;50.284;18.860;2023-04-09T04:15:09;98798.85;;;4.97;84.30
62057;BME280;48016;50.284;18.860;2023-04-09T04:17:36;98797.95;;;4.98;84.35
62057;BME280;48016;50.284;18.860;2023-04-09T04:20:03;98802.45;;;5.00;84.39
62057;BME280;48016;50.284;18.860;2023-04-09T04:22:30;98807.71;;;5.02;84.42
62057;BME280;48016;50.284;18.860;2023-04-09T04:24:56;98809.94;;;5.03;84.31
62057;BME280;48016;50.284;18.860;2023-04-09T04:27:23;98812.55;;;5.00;84.34
62057;BME280;48016;50.284;18.860;2023-04-09T04:29:49;98815.52;;;5.01;84.44
62057;BME280;48016;50.284;18.860;2023-04-09T04:32:22;98815.05;;;5.05;84.53
62057;BME280;48016;50.284;18.860;2023-04-09T04:34:49;98817.60;;;5.08;84.54
62057;BME280;48016;50.284;18.860;2023-04-09T04:37:15;98816.74;;;5.12;84.51
62057;BME280;48016;50.284;18.860;2023-04-09T04:39:42;98816.41;;;5.16;84.49
62057;BME280;48016;50.284;18.860;2023-04-09T04:42:09;98822.18;;;5.19;84.64
62057;BME280;48016;50.284;18.860;2023-04-09T04:44:35;98816.98;;;5.22;84.59
62057;BME280;48016;50.284;18.860;2023-04-09T04:47:02;98811.42;;;5.25;84.68
62057;BME280;48016;50.284;18.860;2023-04-09T04:49:28;98811.66;;;5.27;84.57
62057;BME280;48016;50.284;18.860;2023-04-09T04:51:55;98811.49;;;5.28;84.64
62057;BME280;48016;50.284;18.860;2023-04-09T04:54:22;98810.41;;;5.33;84.72
62057;BME280;48016;50.284;18.860;2023-04-09T04:56:48;98811.61;;;5.38;84.65
62057;BME280;48016;50.284;18.860;2023-04-09T04:59:15;98805.24;;;5.42;84.69
62057;BME280;48016;50.284;18.860;2023-04-09T05:01:42;98804.13;;;5.48;84.67
62057;BME280;48016;50.284;18.860;2023-04-09T05:04:08;98801.45;;;5.53;84.73
62057;BME280;48016;50.284;18.860;2023-04-09T05:06:35;98802.80;;;5.59;84.48
62057;BME280;48016;50.284;18.860;2023-04-09T05:09:01;98804.12;;;5.64;84.36
62057;BME280;48016;50.284;18.860;2023-04-09T05:11:28;98811.13;;;5.70;84.38
62057;BME280;48016;50.284;18.860;2023-04-09T05:13:55;98812.80;;;5.76;84.41
62057;BME280;48016;50.284;18.860;2023-04-09T05:16:22;98814.54;;;5.84;84.44
62057;BME280;48016;50.284;18.860;2023-04-09T05:18:49;98818.23;;;5.94;84.56
62057;BME280;48016;50.284;18.860;2023-04-09T05:21:15;98820.44;;;6.05;84.59
62057;BME280;48016;50.284;18.860;2023-04-09T05:23:42;98822.49;;;6.17;84.44
62057;BME280;48016;50.284;18.860;2023-04-09T05:26:09;98818.72;;;6.28;84.22
62057;BME280;48016;50.284;18.860;2023-04-09T05:28:36;98823.60;;;6.37;84.05
62057;BME280;48016;50.284;18.860;2023-04-09T05:31:02;98822.58;;;6.45;83.98
62057;BME280;48016;50.284;18.860;2023-04-09T05:33:29;98820.33;;;6.53;83.83
62057;BME280;48016;50.284;18.860;2023-04-09T05:35:55;98823.00;;;6.61;83.61
62057;BME280;48016;50.284;18.860;2023-04-09T05:38:22;98826.61;;;6.67;83.55
62057;BME280;48016;50.284;18.860;2023-04-09T05:40:49;98831.11;;;6.72;83.25
62057;BME280;48016;50.284;18.860;2023-04-09T05:43:15;98835.31;;;6.75;83.16
62057;BME280;48016;50.284;18.860;2023-04-09T05:45:42;98837.65;;;6.79;83.07
62057;BME280;48016;50.284;18.860;2023-04-09T05:48:08;98835.21;;;6.83;82.73
62057;BME280;48016;50.284;18.860;2023-04-09T05:50:35;98835.50;;;6.86;82.80
62057;BME280;48016;50.284;18.860;2023-04-09T05:53:02;98838.05;;;6.90;82.70
62057;BME280;48016;50.284;18.860;2023-04-09T05:55:30;98840.61;;;6.94;82.51
62057;BME280;48016;50.284;18.860;2023-04-09T05:57:57;98843.40;;;6.96;82.24
62057;BME280;48016;50.284;18.860;2023-04-09T06:00:23;98845.34;;;6.97;82.42
62057;BME280;48016;50.284;18.860;2023-04-09T06:02:50;98846.55;;;7.00;82.19
62057;BME280;48016;50.284;18.860;2023-04-09T06:05:16;98843.89;;;7.02;82.11
62057;BME280;48016;50.284;18.860;2023-04-09T06:07:43;98847.48;;;7.03;82.10
62057;BME280;48016;50.284;18.860;2023-04-09T06:10:10;98845.59;;;7.03;81.92
62057;BME280;48016;50.284;18.860;2023-04-09T06:12:36;98851.13;;;7.03;81.85
62057;BME280;48016;50.284;18.860;2023-04-09T06:15:06;98850.75;;;7.03;81.88
62057;BME280;48016;50.284;18.860;2023-04-09T06:17:36;98857.32;;;7.04;81.44
62057;BME280;48016;50.284;18.860;2023-04-09T06:20:03;98857.73;;;7.03;81.50
62057;BME280;48016;50.284;18.860;2023-04-09T06:22:29;98854.21;;;7.05;81.75
62057;BME280;48016;50.284;18.860;2023-04-09T06:24:56;98856.89;;;7.11;81.72
62057;BME280;48016;50.284;18.860;2023-04-09T06:27:22;98852.46;;;7.16;81.82
62057;BME280;48016;50.284;18.860;2023-04-09T06:29:49;98855.86;;;7.21;81.82
62057;BME280;48016;50.284;18.860;2023-04-09T06:32:16;98855.10;;;7.28;81.67
62057;BME280;48016;50.284;18.860;2023-04-09T06:34:42;98855.98;;;7.32;81.61
62057;BME280;48016;50.284;18.860;2023-04-09T06:37:09;98858.77;;;7.35;81.52
62057;BME280;48016;50.284;18.860;2023-04-09T06:39:36;98860.91;;;7.36;81.47
62057;BME280;48016;50.284;18.860;2023-04-09T06:42:02;98858.34;;;7.37;81.40
62057;BME280;48016;50.284;18.860;2023-04-09T06:44:29;98863.55;;;7.40;81.26
62057;BME280;48016;50.284;18.860;2023-04-09T06:46:56;98867.73;;;7.40;81.18
62057;BME280;48016;50.284;18.860;2023-04-09T06:49:23;98869.26;;;7.38;81.18
62057;BME280;48016;50.284;18.860;2023-04-09T06:51:49;98872.67;;;7.36;81.12
62057;BME280;48016;50.284;18.860;2023-04-09T06:54:19;98871.08;;;7.33;81.14
62057;BME280;48016;50.284;18.860;2023-04-09T06:56:46;98876.36;;;7.35;81.24
62057;BME280;48016;50.284;18.860;2023-04-09T06:59:12;98875.59;;;7.38;81.33
62057;BME280;48016;50.284;18.860;2023-04-09T07:01:39;98878.52;;;7.42;81.15
62057;BME280;48016;50.284;18.860;2023-04-09T07:04:06;98881.09;;;7.43;81.03
62057;BME280;48016;50.284;18.860;2023-04-09T07:06:33;98877.96;;;7.46;81.12
62057;BME280;48016;50.284;18.860;2023-04-09T07:09:00;98877.70;;;7.52;81.10
62057;BME280;48016;50.284;18.860;2023-04-09T07:11:26;98882.48;;;7.57;81.12
62057;BME280;48016;50.284;18.860;2023-04-09T07:13:53;98882.47;;;7.61;80.99
62057;BME280;48016;50.284;18.860;2023-04-09T07:16:21;98885.27;;;7.61;80.88
62057;BME280;48016;50.284;18.860;2023-04-09T07:18:48;98882.36;;;7.66;80.90
62057;BME280;48016;50.284;18.860;2023-04-09T07:21:15;98881.11;;;7.72;80.78
62057;BME280;48016;50.284;18.860;2023-04-09T07:23:42;98885.48;;;7.77;80.64
62057;BME280;48016;50.284;18.860;2023-04-09T07:26:09;98887.02;;;7.80;80.67
62057;BME280;48016;50.284;18.860;2023-04-09T07:28:35;98884.47;;;7.83;80.75
62057;BME280;48016;50.284;18.860;2023-04-09T07:31:02;98883.30;;;7.88;80.88
62057;BME280;48016;50.284;18.860;2023-04-09T07:33:29;98885.40;;;7.98;80.82
62057;BME280;48016;50.284;18.860;2023-04-09T07:35:56;98886.15;;;8.06;80.71
62057;BME280;48016;50.284;18.860;2023-04-09T07:38:23;98884.48;;;8.13;80.64
62057;BME280;48016;50.284;18.860;2023-04-09T07:40:49;98884.98;;;8.20;80.60
62057;BME280;48016;50.284;18.860;2023-04-09T07:43:16;98887.47;;;8.28;80.54
62057;BME280;48016;50.284;18.860;2023-04-09T07:45:43;98886.96;;;8.35;80.30
62057;BME280;48016;50.284;18.860;2023-04-09T07:48:09;98889.94;;;8.43;80.09
62057;BME280;48016;50.284;18.860;2023-04-09T07:50:36;98889.62;;;8.47;79.78
62057;BME280;48016;50.284;18.860;2023-04-09T07:53:03;98890.80;;;8.52;79.69
62057;BME280;48016;50.284;18.860;2023-04-09T07:55:30;98893.30;;;8.57;79.54
62057;BME280;48016;50.284;18.860;2023-04-09T07:57:56;98893.47;;;8.64;79.32
62057;BME280;48016;50.284;18.860;2023-04-09T08:00:23;98896.55;;;8.69;79.17
62057;BME280;48016;50.284;18.860;2023-04-09T08:02:49;98893.68;;;8.73;79.06
62057;BME280;48016;50.284;18.860;2023-04-09T08:05:16;98888.86;;;8.77;78.89
62057;BME280;48016;50.284;18.860;2023-04-09T08:07:43;98893.33;;;8.80;78.69
62057;BME280;48016;50.284;18.860;2023-04-09T08:10:09;98892.81;;;8.81;78.66
62057;BME280;48016;50.284;18.860;2023-04-09T08:12:40;98896.15;;;8.86;78.65
62057;BME280;48016;50.284;18.860;2023-04-09T08:15:08;98892.95;;;8.93;78.46
62057;BME280;48016;50.284;18.860;2023-04-09T08:17:34;98892.13;;;8.98;78.37
62057;BME280;48016;50.284;18.860;2023-04-09T08:20:03;98897.23;;;8.98;78.35
62057;BME280;48016;50.284;18.860;2023-04-09T08:22:30;98900.05;;;8.98;77.92
62057;BME280;48016;50.284;18.860;2023-04-09T08:24:57;98903.55;;;8.91;77.93
62057;BME280;48016;50.284;18.860;2023-04-09T08:27:24;98906.80;;;8.84;77.89
62057;BME280;48016;50.284;18.860;2023-04-09T08:29:50;98907.33;;;8.79;77.67
62057;BME280;48016;50.284;18.860;2023-04-09T08:32:17;98912.06;;;8.75;77.66
62057;BME280;48016;50.284;18.860;2023-04-09T08:34:43;98914.05;;;8.75;77.80
62057;BME280;48016;50.284;18.860;2023-04-09T08:37:10;98913.88;;;8.79;77.65
62057;BME280;48016;50.284;18.860;2023-04-09T08:39:37;98910.98;;;8.84;77.66
62057;BME280;48016;50.284;18.860;2023-04-09T08:42:04;98908.55;;;8.89;77.59
62057;BME280;48016;50.284;18.860;2023-04-09T08:44:32;98908.48;;;8.95;77.32
62057;BME280;48016;50.284;18.860;2023-04-09T08:46:59;98910.86;;;9.01;77.44
62057;BME280;48016;50.284;18.860;2023-04-09T08:49:25;98915.67;;;9.05;77.22
62057;BME280;48016;50.284;18.860;2023-04-09T08:51:52;98915.82;;;9.09;76.85
62057;BME280;48016;50.284;18.860;2023-04-09T08:54:19;98914.67;;;9.16;76.67
62057;BME280;48016;50.284;18.860;2023-04-09T08:56:46;98912.77;;;9.21;76.56
62057;BME280;48016;50.284;18.860;2023-04-09T08:59:16;98911.88;;;9.20;76.14
62057;BME280;48016;50.284;18.860;2023-04-09T09:01:46;98916.48;;;9.20;76.13
62057;BME280;48016;50.284;18.860;2023-04-09T09:04:17;98916.25;;;9.22;76.05
62057;BME280;48016;50.284;18.860;2023-04-09T09:06:44;98917.05;;;9.27;75.81
62057;BME280;48016;50.284;18.860;2023-04-09T09:09:15;98917.60;;;9.28;75.82
62057;BME280;48016;50.284;18.860;2023-04-09T09:11:45;98917.79;;;9.25;75.96
62057;BME280;48016;50.284;18.860;2023-04-09T09:14:14;98921.79;;;9.21;75.77
62057;BME280;48016;50.284;18.860;2023-04-09T09:16:42;98920.11;;;9.14;75.99
62057;BME280;48016;50.284;18.860;2023-04-09T09:19:27;98916.66;;;9.17;76.10
62057;BME280;48016;50.284;18.860;2023-04-09T09:21:56;98918.66;;;9.17;75.88
62057;BME280;48016;50.284;18.860;2023-04-09T09:24:23;98921.00;;;9.15;75.96
62057;BME280;48016;50.284;18.860;2023-04-09T09:26:50;98918.08;;;9.19;76.10
62057;BME280;48016;50.284;18.860;2023-04-09T09:29:20;98919.75;;;9.24;75.81
62057;BME280;48016;50.284;18.860;2023-04-09T09:31:51;98918.56;;;9.28;75.57
62057;BME280;48016;50.284;18.860;2023-04-09T09:34:20;98920.05;;;9.34;75.49
62057;BME280;48016;50.284;18.860;2023-04-09T09:36:47;98916.85;;;9.37;75.39
62057;BME280;48016;50.284;18.860;2023-04-09T09:39:15;98914.80;;;9.41;75.40
62057;BME280;48016;50.284;18.860;2023-04-09T09:41:46;98915.23;;;9.45;75.52
62057;BME280;48016;50.284;18.860;2023-04-09T09:44:31;98913.64;;;9.45;75.31
62057;BME280;48016;50.284;18.860;2023-04-09T09:47:03;98916.45;;;9.47;75.32
62057;BME280;48016;50.284;18.860;2023-04-09T09:49:32;98916.16;;;9.48;75.35
62057;BME280;48016;50.284;18.860;2023-04-09T09:52:01;98915.30;;;9.51;74.81
62057;BME280;48016;50.284;18.860;2023-04-09T09:54:41;98917.27;;;9.52;74.78
62057;BME280;48016;50.284;18.860;2023-04-09T09:57:11;98913.95;;;9.57;74.83
62057;BME280;48016;50.284;18.860;2023-04-09T10:00:02;98911.56;;;9.64;74.53
62057;BME280;48016;50.284;18.860;2023-04-09T10:02:36;98914.23;;;9.70;74.25
62057;BME280;48016;50.284;18.860;2023-04-09T10:05:07;98910.92;;;9.76;74.01
62057;BME280;48016;50.284;18.860;2023-04-09T10:07:35;98910.10;;;9.83;73.95
62057;BME280;48016;50.284;18.860;2023-04-09T10:10:04;98908.79;;;9.86;73.62
62057;BME280;48016;50.284;18.860;2023-04-09T10:12:31;98907.48;;;9.88;73.57
62057;BME280;48016;50.284;18.860;2023-04-09T10:15:00;98908.45;;;9.87;73.18
62057;BME280;48016;50.284;18.860;2023-04-09T10:17:29;98905.57;;;9.80;72.88
62057;BME280;48016;50.284;18.860;2023-04-09T10:20:00;98902.27;;;9.75;73.03
62057;BME280;48016;50.284;18.860;2023-04-09T10:22:31;98902.84;;;9.70;72.86
62057;BME280;48016;50.284;18.860;2023-04-09T10:25:00;98900.86;;;9.70;72.99
62057;BME280;48016;50.284;18.860;2023-04-09T10:27:28;98897.05;;;9.73;73.00
62057;BME280;48016;50.284;18.860;2023-04-09T10:29:54;98896.05;;;9.80;73.05
62057;BME280;48016;50.284;18.860;2023-04-09T10:32:22;98895.33;;;9.88;73.21
62057;BME280;48016;50.284;18.860;2023-04-09T10:34:55;98894.43;;;9.97;73.05
62057;BME280;48016;50.284;18.860;2023-04-09T10:37:26;98893.49;;;10.05;72.85
62057;BME280;48016;50.284;18.860;2023-04-09T10:39:53;98892.36;;;10.16;72.16
62057;BME280;48016;50.284;18.860;2023-04-09T10:42:23;98891.14;;;10.25;72.04
62057;BME280;48016;50.284;18.860;2023-04-09T10:47:37;98891.14;;;10.35;71.29
62057;BME280;48016;50.284;18.860;2023-04-09T10:50:22;98888.97;;;10.33;71.08
62057;BME280;48016;50.284;18.860;2023-04-09T10:52:56;98890.33;;;10.34;71.48
62057;BME280;48016;50.284;18.860;2023-04-09T10:55:39;98885.54;;;10.34;71.60
62057;BME280;48016;50.284;18.860;2023-04-09T10:58:07;98888.41;;;10.43;71.64
62057;BME280;48016;50.284;18.860;2023-04-09T11:00:39;98886.17;;;10.50;71.47
62057;BME280;48016;50.284;18.860;2023-04-09T11:05:40;98883.40;;;10.63;71.30
62057;BME280;48016;50.284;18.860;2023-04-09T11:10:36;98882.45;;;10.75;70.81
62057;BME280;48016;50.284;18.860;2023-04-09T11:13:04;98882.58;;;10.82;70.99
62057;BME280;48016;50.284;18.860;2023-04-09T11:15:33;98882.00;;;10.87;70.52
62057;BME280;48016;50.284;18.860;2023-04-09T11:18:01;98884.57;;;10.94;70.26
62057;BME280;48016;50.284;18.860;2023-04-09T11:20:28;98884.29;;;11.02;70.38
62057;BME280;48016;50.284;18.860;2023-04-09T11:22:57;98882.11;;;11.10;70.23
62057;BME280;48016;50.284;18.860;2023-04-09T11:25:29;98879.80;;;11.12;69.69
62057;BME280;48016;50.284;18.860;2023-04-09T11:27:56;98881.84;;;11.14;69.41
62057;BME280;48016;50.284;18.860;2023-04-09T11:30:23;98885.20;;;11.17;69.10
62057;BME280;48016;50.284;18.860;2023-04-09T11:32:50;98887.13;;;11.23;68.97
62057;BME280;48016;50.284;18.860;2023-04-09T11:35:18;98887.93;;;11.35;69.00
62057;BME280;48016;50.284;18.860;2023-04-09T11:37:47;98886.06;;;11.46;69.27
62057;BME280;48016;50.284;18.860;2023-04-09T11:40:19;98885.61;;;11.55;69.18
62057;BME280;48016;50.284;18.860;2023-04-09T11:42:49;98888.09;;;11.58;68.63
62057;BME280;48016;50.284;18.860;2023-04-09T11:45:17;98887.91;;;11.61;68.45
62057;BME280;48016;50.284;18.860;2023-04-09T11:47:44;98881.48;;;11.68;68.49
62057;BME280;48016;50.284;18.860;2023-04-09T11:50:13;98882.16;;;11.74;67.93
62057;BME280;48016;50.284;18.860;2023-04-09T11:52:41;98879.95;;;11.81;67.83
62057;BME280;48016;50.284;18.860;2023-04-09T11:55:08;98879.80;;;11.91;67.70
62057;BME280;48016;50.284;18.860;2023-04-09T11:57:45;98880.33;;;11.99;67.54
62057;BME280;48016;50.284;18.860;2023-04-09T12:00:13;98880.91;;;12.09;67.10
62057;BME280;48016;50.284;18.860;2023-04-09T12:02:47;98878.67;;;12.12;66.69
62057;BME280;48016;50.284;18.860;2023-04-09T12:05:25;98879.48;;;12.17;66.08
62057;BME280;48016;50.284;18.860;2023-04-09T12:08:05;98882.89;;;12.28;66.01
62057;BME280;48016;50.284;18.860;2023-04-09T12:10:34;98883.77;;;12.29;65.44
62057;BME280;48016;50.284;18.860;2023-04-09T12:13:06;98882.80;;;12.26;65.23
62057;BME280;48016;50.284;18.860;2023-04-09T12:15:39;98883.19;;;12.30;64.97
62057;BME280;48016;50.284;18.860;2023-04-09T12:18:11;98882.77;;;12.45;64.87
62057;BME280;48016;50.284;18.860;2023-04-09T12:20:45;98877.39;;;12.57;65.04
62057;BME280;48016;50.284;18.860;2023-04-09T12:23:13;98880.77;;;12.69;64.77
62057;BME280;48016;50.284;18.860;2023-04-09T12:25:41;98879.25;;;12.74;63.98
62057;BME280;48016;50.284;18.860;2023-04-09T12:28:10;98876.24;;;12.77;64.14
62057;BME280;48016;50.284;18.860;2023-04-09T12:30:37;98876.50;;;12.75;64.49
62057;BME280;48016;50.284;18.860;2023-04-09T12:33:05;98877.77;;;12.72;63.95
62057;BME280;48016;50.284;18.860;2023-04-09T12:35:32;98875.03;;;12.75;63.24
62057;BME280;48016;50.284;18.860;2023-04-09T12:37:59;98873.94;;;12.79;63.04
62057;BME280;48016;50.284;18.860;2023-04-09T12:40:26;98872.60;;;12.86;63.04
62057;BME280;48016;50.284;18.860;2023-04-09T12:42:52;98871.16;;;12.83;62.00
62057;BME280;48016;50.284;18.860;2023-04-09T12:45:20;98872.30;;;12.87;61.97
62057;BME280;48016;50.284;18.860;2023-04-09T12:47:47;98872.46;;;12.95;61.57
62057;BME280;48016;50.284;18.860;2023-04-09T12:50:14;98870.89;;;13.00;61.76
62057;BME280;48016;50.284;18.860;2023-04-09T12:52:44;98868.86;;;13.11;61.41
62057;BME280;48016;50.284;18.860;2023-04-09T12:55:12;98868.67;;;13.28;61.84
62057;BME280;48016;50.284;18.860;2023-04-09T12:57:42;98862.88;;;13.36;61.49
62057;BME280;48016;50.284;18.860;2023-04-09T13:00:10;98858.83;;;13.38;60.57
62057;BME280;48016;50.284;18.860;2023-04-09T13:02:37;98857.81;;;13.41;61.39
62057;BME280;48016;50.284;18.860;2023-04-09T13:05:04;98859.34;;;13.35;61.01
62057;BME280;48016;50.284;18.860;2023-04-09T13:07:31;98858.09;;;13.22;60.51
62057;BME280;48016;50.284;18.860;2023-04-09T13:09:57;98859.09;;;13.09;60.74
62057;BME280;48016;50.284;18.860;2023-04-09T13:12:24;98855.02;;;12.87;60.54
62057;BME280;48016;50.284;18.860;2023-04-09T13:14:53;98854.84;;;12.64;60.68
62057;BME280;48016;50.284;18.860;2023-04-09T13:17:20;98852.69;;;12.51;60.97
62057;BME280;48016;50.284;18.860;2023-04-09T13:19:46;98853.09;;;12.39;60.79